Time;durP1;ratioP1;P1;durP2;ratioP2;P2;SDS_P1;SDS_P2;PMS_P1;PMS_P2;Temp;Humidity;BMP_temperature;BMP_pressure;BME280_temperature;BME280_humidity;BME280_pressure;Samples;Min_cycle;Max_cycle;Signal;HPM_P1;HPM_P2
2024/01/17 00:01:16;;;;;;;11.33;8.43;;;;;;;;;;5097881;28;20300;-57
2024/01/17 00:03:43;;;;;;;15.50;8.13;;;;;;;;;;5097298;28;20554;-56
2024/01/17 00:06:09;;;;;;;11.70;7.93;;;;;;;;;;5097839;28;20683;-56
2024/01/17 00:08:35;;;;;;;13.97;9.33;;;;;;;;;;5097745;28;20167;-57
2024/01/17 00:11:01;;;;;;;12.40;8.97;;;;;;;;;;5097407;28;20456;-55
2024/01/17 00:13:27;;;;;;;12.63;8.43;;;;;;;;;;5093064;28;20326;-55
2024/01/17 00:15:53;;;;;;;14.73;8.40;;;;;;;;;;5093662;28;20187;-55
2024/01/17 00:18:19;;;;;;;19.40;8.43;;;;;;;;;;5094696;28;20168;-57
2024/01/17 00:20:45;;;;;;;16.93;8.33;;;;;;;;;;5094492;28;20196;-57
2024/01/17 00:23:11;;;;;;;16.70;8.27;;;;;;;;;;5095453;28;20175;-56
2024/01/17 00:25:37;;;;;;;20.80;8.63;;;;;;;;;;5095911;28;20164;-57
2024/01/17 00:28:03;;;;;;;11.20;7.70;;;;;;;;;;5094830;28;20227;-57
2024/01/17 00:30:29;;;;;;;12.23;7.63;;;;;;;;;;5095694;28;20279;-56
2024/01/17 00:32:56;;;;;;;10.97;7.87;;;;;;;;;;5095087;28;20168;-55
2024/01/17 00:35:22;;;;;;;18.77;8.70;;;;;;;;;;5095954;28;20171;-55
2024/01/17 00:37:48;;;;;;;12.33;8.37;;;;;;;;;;5095304;28;20183;-56
2024/01/17 00:40:14;;;;;;;18.27;8.67;;;;;;;;;;5095340;28;20253;-56
2024/01/17 00:42:40;;;;;;;15.50;9.37;;;;;;;;;;5095020;28;20176;-57
2024/01/17 00:45:07;;;;;;;15.57;8.70;;;;;;;;;;5095053;28;20233;-54
2024/01/17 00:47:33;;;;;;;13.90;8.17;;;;;;;;;;5094962;28;20168;-55
2024/01/17 00:49:58;;;;;;;17.40;8.63;;;;;;;;;;5095998;28;20168;-55
2024/01/17 00:52:24;;;;;;;10.37;7.97;;;;;;;;;;5095403;28;20266;-55
2024/01/17 00:54:50;;;;;;;13.40;8.47;;;;;;;;;;5095496;28;20172;-54
2024/01/17 00:57:16;;;;;;;14.30;8.40;;;;;;;;;;5095835;28;20263;-55
2024/01/17 00:59:42;;;;;;;13.13;9.20;;;;;;;;;;5095936;28;20252;-56
2024/01/17 01:02:09;;;;;;;16.70;8.80;;;;;;;;;;5095578;28;20207;-51
2024/01/17 01:04:35;;;;;;;11.60;8.27;;;;;;;;;;5095401;28;20178;-55
2024/01/17 01:07:01;;;;;;;11.87;8.23;;;;;;;;;;5095381;28;20160;-55
2024/01/17 01:09:28;;;;;;;17.60;8.63;;;;;;;;;;5095029;28;20236;-54
2024/01/17 01:11:54;;;;;;;14.77;8.53;;;;;;;;;;5095014;28;20549;-55
2024/01/17 01:14:20;;;;;;;17.60;7.87;;;;;;;;;;5094790;28;20306;-54
2024/01/17 01:16:46;;;;;;;9.13;7.40;;;;;;;;;;5095248;28;20180;-56
2024/01/17 01:19:12;;;;;;;13.93;8.10;;;;;;;;;;5096392;28;20271;-55
2024/01/17 01:21:38;;;;;;;16.57;7.83;;;;;;;;;;5095280;28;20580;-55
2024/01/17 01:24:04;;;;;;;11.70;7.37;;;;;;;;;;5094648;28;20176;-54
2024/01/17 01:26:29;;;;;;;11.53;8.00;;;;;;;;;;5095054;28;20233;-54
2024/01/17 01:28:56;;;;;;;15.10;8.20;;;;;;;;;;5094903;28;20195;-53
2024/01/17 01:31:22;;;;;;;14.43;7.43;;;;;;;;;;5093705;28;20207;-53
2024/01/17 01:33:48;;;;;;;14.33;8.30;;;;;;;;;;5094536;28;20222;-56
2024/01/17 01:36:14;;;;;;;13.93;8.00;;;;;;;;;;5094412;28;20652;-54
2024/01/17 01:38:40;;;;;;;10.37;7.50;;;;;;;;;;5093359;28;20556;-52
2024/01/17 01:41:07;;;;;;;12.67;7.70;;;;;;;;;;5094988;28;20211;-52
2024/01/17 01:43:33;;;;;;;10.23;6.87;;;;;;;;;;5093918;28;20169;-53
2024/01/17 01:45:58;;;;;;;15.57;8.13;;;;;;;;;;5094243;28;20176;-54
2024/01/17 01:48:24;;;;;;;11.83;7.37;;;;;;;;;;5095981;28;20183;-55
2024/01/17 01:50:51;;;;;;;12.53;7.90;;;;;;;;;;5098465;28;20176;-54
2024/01/17 01:53:17;;;;;;;13.13;8.33;;;;;;;;;;5097608;28;20182;-56
2024/01/17 01:55:42;;;;;;;10.57;7.40;;;;;;;;;;5097780;28;20266;-53
2024/01/17 01:58:08;;;;;;;10.53;7.80;;;;;;;;;;5097605;28;20168;-52
2024/01/17 02:00:35;;;;;;;14.57;7.97;;;;;;;;;;5097799;28;20548;-54
2024/01/17 02:03:01;;;;;;;11.43;8.07;;;;;;;;;;5096781;28;20266;-56
2024/01/17 02:05:26;;;;;;;11.53;8.10;;;;;;;;;;5096212;28;20276;-56
2024/01/17 02:07:53;;;;;;;14.33;7.83;;;;;;;;;;5096109;28;20168;-53
2024/01/17 02:10:19;;;;;;;9.27;7.57;;;;;;;;;;5096592;28;20187;-55
2024/01/17 02:12:45;;;;;;;13.10;8.33;;;;;;;;;;5097848;28;20242;-53
2024/01/17 02:15:11;;;;;;;10.40;7.23;;;;;;;;;;5097080;28;20188;-54
2024/01/17 02:17:37;;;;;;;12.00;7.50;;;;;;;;;;5098268;28;20264;-53
2024/01/17 02:20:03;;;;;;;15.20;7.80;;;;;;;;;;5098217;28;20203;-53
2024/01/17 02:22:29;;;;;;;15.97;7.57;;;;;;;;;;5097988;28;20172;-52
2024/01/17 02:24:55;;;;;;;9.97;7.10;;;;;;;;;;5097722;28;20172;-52
2024/01/17 02:27:21;;;;;;;15.87;7.37;;;;;;;;;;5098103;28;20172;-54
2024/01/17 02:29:48;;;;;;;12.00;6.97;;;;;;;;;;5097511;28;20180;-56
2024/01/17 02:32:14;;;;;;;10.63;7.17;;;;;;;;;;5097427;28;20185;-53
2024/01/17 02:34:40;;;;;;;12.37;7.20;;;;;;;;;;5097676;28;20180;-52
2024/01/17 02:37:10;;;;;;;10.70;6.83;;;;;;;;;;5098420;28;20255;-57
2024/01/17 02:39:36;;;;;;;10.83;7.70;;;;;;;;;;5097827;28;20180;-55
2024/01/17 02:42:02;;;;;;;14.00;7.57;;;;;;;;;;5097966;28;20203;-56
2024/01/17 02:44:28;;;;;;;14.60;7.20;;;;;;;;;;5096462;28;20485;-56
2024/01/17 02:46:54;;;;;;;12.90;6.70;;;;;;;;;;5097003;28;20169;-53
2024/01/17 02:49:21;;;;;;;14.70;7.57;;;;;;;;;;5097947;28;20172;-56
2024/01/17 02:51:47;;;;;;;12.97;6.67;;;;;;;;;;5097875;28;20633;-55
2024/01/17 02:54:12;;;;;;;10.53;6.60;;;;;;;;;;5097093;28;20172;-56
2024/01/17 02:56:39;;;;;;;11.70;6.93;;;;;;;;;;5097238;28;20180;-55
2024/01/17 02:59:06;;;;;;;10.97;6.67;;;;;;;;;;5095757;28;20597;-54
2024/01/17 03:01:33;;;;;;;8.90;6.23;;;;;;;;;;5096357;28;20607;-52
2024/01/17 03:03:59;;;;;;;13.63;6.63;;;;;;;;;;5097270;28;20650;-56
2024/01/17 03:06:25;;;;;;;10.20;6.60;;;;;;;;;;5096145;28;20242;-53
2024/01/17 03:08:51;;;;;;;17.97;7.97;;;;;;;;;;5095279;28;20152;-54
2024/01/17 03:11:17;;;;;;;11.13;6.67;;;;;;;;;;5096198;28;20179;-56
2024/01/17 03:13:43;;;;;;;9.00;6.37;;;;;;;;;;5106829;28;20494;-54
2024/01/17 03:16:09;;;;;;;15.07;7.40;;;;;;;;;;5116665;28;20179;-54
2024/01/17 03:18:37;;;;;;;11.17;7.00;;;;;;;;;;5098370;28;20176;-56
2024/01/17 03:21:07;;;;;;;11.60;7.33;;;;;;;;;;5098686;28;20207;-56
2024/01/17 03:23:33;;;;;;;10.20;7.97;;;;;;;;;;5099498;28;20184;-55
2024/01/17 03:26:01;;;;;;;10.90;7.47;;;;;;;;;;5099332;28;20200;-55
2024/01/17 03:28:27;;;;;;;15.83;7.60;;;;;;;;;;5099526;28;20179;-55
2024/01/17 03:30:53;;;;;;;13.03;8.03;;;;;;;;;;5099912;28;20209;-53
2024/01/17 03:33:19;;;;;;;13.53;8.80;;;;;;;;;;5117695;28;20168;-55
2024/01/17 03:35:45;;;;;;;16.97;7.83;;;;;;;;;;5097787;28;20415;-56
2024/01/17 03:38:11;;;;;;;15.73;8.93;;;;;;;;;;5096424;28;20236;-54
2024/01/17 03:40:37;;;;;;;15.03;8.03;;;;;;;;;;5094682;28;20211;-56
2024/01/17 03:43:03;;;;;;;14.23;8.90;;;;;;;;;;5095740;28;20169;-56
2024/01/17 03:45:29;;;;;;;21.23;8.33;;;;;;;;;;5095691;28;20182;-55
2024/01/17 03:47:55;;;;;;;12.97;9.37;;;;;;;;;;5095855;28;20307;-53
2024/01/17 03:50:21;;;;;;;10.80;7.63;;;;;;;;;;5111931;28;20176;-56
2024/01/17 03:52:46;;;;;;;19.07;7.50;;;;;;;;;;5111763;28;20236;-52
2024/01/17 03:55:12;;;;;;;12.70;8.77;;;;;;;;;;5094543;28;20171;-50
2024/01/17 03:57:38;;;;;;;12.70;8.10;;;;;;;;;;5093975;28;20309;-55
2024/01/17 04:00:06;;;;;;;26.37;8.73;;;;;;;;;;5093812;28;20307;-56
2024/01/17 04:02:32;;;;;;;13.37;7.87;;;;;;;;;;5093136;28;20223;-55
2024/01/17 04:04:57;;;;;;;15.07;8.37;;;;;;;;;;5095244;28;20282;-55
2024/01/17 04:07:23;;;;;;;12.07;7.87;;;;;;;;;;5093645;28;20167;-56
2024/01/17 04:09:49;;;;;;;16.83;8.30;;;;;;;;;;5111931;28;20179;-55
2024/01/17 04:12:15;;;;;;;13.77;8.17;;;;;;;;;;5092987;28;20531;-53
2024/01/17 04:14:42;;;;;;;10.97;7.20;;;;;;;;;;5094330;28;20319;-55
2024/01/17 04:17:11;;;;;;;15.40;7.60;;;;;;;;;;5096561;28;20171;-53
2024/01/17 04:19:36;;;;;;;12.57;8.07;;;;;;;;;;5098077;28;20263;-55
2024/01/17 04:22:03;;;;;;;16.13;7.50;;;;;;;;;;5096911;28;20717;-56
2024/01/17 04:24:29;;;;;;;12.80;8.43;;;;;;;;;;5115207;28;20190;-56
2024/01/17 04:26:56;;;;;;;11.60;8.07;;;;;;;;;;5097563;28;20171;-57
2024/01/17 04:29:23;;;;;;;10.50;7.87;;;;;;;;;;5097704;28;20189;-53
2024/01/17 04:31:49;;;;;;;13.60;8.20;;;;;;;;;;5097522;28;20274;-56
2024/01/17 04:34:15;;;;;;;18.13;8.60;;;;;;;;;;5114596;28;20172;-53
2024/01/17 04:36:41;;;;;;;17.90;8.93;;;;;;;;;;5097920;28;20171;-54
2024/01/17 04:39:08;;;;;;;12.97;7.80;;;;;;;;;;5097838;28;20252;-56
2024/01/17 04:41:34;;;;;;;9.73;7.40;;;;;;;;;;5097569;28;20205;-55
2024/01/17 04:44:00;;;;;;;13.73;8.23;;;;;;;;;;5098030;28;20178;-55
2024/01/17 04:49:30;;;;;;;14.10;7.50;;;;;;;;;;5116469;28;20240;-53
2024/01/17 04:51:56;;;;;;;13.17;7.17;;;;;;;;;;5097829;28;20175;-54
2024/01/17 04:54:23;;;;;;;11.63;7.60;;;;;;;;;;5097680;28;20244;-56
2024/01/17 04:56:49;;;;;;;10.77;6.63;;;;;;;;;;5097729;28;20171;-53
2024/01/17 04:59:15;;;;;;;12.03;8.03;;;;;;;;;;5097168;28;20186;-54
2024/01/17 05:01:41;;;;;;;14.90;7.67;;;;;;;;;;5096814;28;20207;-57
2024/01/17 05:04:08;;;;;;;8.87;6.40;;;;;;;;;;5114943;28;20236;-56
2024/01/17 05:06:34;;;;;;;14.10;7.90;;;;;;;;;;5097660;28;20178;-56
2024/01/17 05:09:03;;;;;;;17.37;7.97;;;;;;;;;;5115184;28;20208;-53
2024/01/17 05:11:29;;;;;;;13.07;6.80;;;;;;;;;;5115708;28;20194;-56
2024/01/17 05:13:55;;;;;;;14.03;6.43;;;;;;;;;;5097109;28;20245;-57
2024/01/17 05:16:24;;;;;;;14.80;8.03;;;;;;;;;;5097692;28;20183;-56
2024/01/17 05:18:50;;;;;;;10.90;6.97;;;;;;;;;;5097199;28;20175;-55
2024/01/17 05:21:16;;;;;;;10.67;7.20;;;;;;;;;;5097366;28;20194;-53
2024/01/17 05:23:42;;;;;;;12.77;7.67;;;;;;;;;;5099887;28;20171;-57
2024/01/17 05:26:08;;;;;;;14.57;7.80;;;;;;;;;;5100972;28;20174;-55
2024/01/17 05:28:34;;;;;;;15.83;7.33;;;;;;;;;;5100080;28;20171;-55
2024/01/17 05:31:00;;;;;;;10.67;7.23;;;;;;;;;;5100337;28;20225;-55
2024/01/17 05:33:26;;;;;;;12.77;7.60;;;;;;;;;;5117860;28;20176;-57
2024/01/17 05:35:52;;;;;;;14.30;7.23;;;;;;;;;;5101079;28;20369;-53
2024/01/17 05:38:18;;;;;;;13.87;7.67;;;;;;;;;;5100150;28;20469;-56
2024/01/17 05:40:44;;;;;;;14.63;7.33;;;;;;;;;;5100578;28;20214;-54
2024/01/17 05:43:10;;;;;;;16.50;7.20;;;;;;;;;;5100319;28;20163;-55
2024/01/17 05:45:36;;;;;;;11.67;7.30;;;;;;;;;;5101268;28;20189;-54
2024/01/17 05:48:02;;;;;;;15.27;8.33;;;;;;;;;;5100344;28;20565;-53
2024/01/17 05:50:28;;;;;;;12.10;7.57;;;;;;;;;;5100550;28;20451;-56
2024/01/17 05:52:54;;;;;;;8.83;6.50;;;;;;;;;;5100132;28;20171;-52
2024/01/17 05:55:20;;;;;;;9.40;6.73;;;;;;;;;;5100590;28;20198;-54
2024/01/17 05:57:46;;;;;;;10.33;7.50;;;;;;;;;;5117616;28;20171;-55
2024/01/17 06:00:12;;;;;;;10.27;6.70;;;;;;;;;;5099738;28;20206;-55
2024/01/17 06:02:39;;;;;;;10.47;7.00;;;;;;;;;;5100148;28;20274;-55
2024/01/17 06:05:06;;;;;;;13.20;6.57;;;;;;;;;;5117711;28;20167;-52
2024/01/17 06:07:32;;;;;;;12.67;6.93;;;;;;;;;;5099558;28;20176;-51
2024/01/17 06:09:58;;;;;;;13.37;6.97;;;;;;;;;;5097238;28;20315;-56
2024/01/17 06:12:24;;;;;;;11.07;7.30;;;;;;;;;;5116020;28;20236;-55
2024/01/17 06:14:50;;;;;;;13.10;8.13;;;;;;;;;;5094790;28;20239;-53
2024/01/17 06:17:16;;;;;;;11.63;7.17;;;;;;;;;;5094623;28;20179;-53
2024/01/17 06:19:42;;;;;;;8.87;6.33;;;;;;;;;;5095865;28;20171;-52
2024/01/17 06:22:08;;;;;;;11.13;6.93;;;;;;;;;;5095705;28;20203;-58
2024/01/17 06:24:34;;;;;;;12.80;5.93;;;;;;;;;;5095071;28;20183;-54
2024/01/17 06:27:00;;;;;;;12.23;7.07;;;;;;;;;;5094622;28;20172;-53
2024/01/17 06:29:29;;;;;;;13.13;7.03;;;;;;;;;;5095012;28;20168;-54
2024/01/17 06:31:56;;;;;;;12.10;7.57;;;;;;;;;;5095813;28;20180;-56
2024/01/17 06:34:22;;;;;;;10.50;7.40;;;;;;;;;;5094601;28;20176;-56
2024/01/17 06:36:48;;;;;;;11.43;6.10;;;;;;;;;;5094552;28;20183;-55
2024/01/17 06:39:17;;;;;;;11.50;6.97;;;;;;;;;;5094586;28;20168;-54
2024/01/17 06:41:44;;;;;;;9.47;6.10;;;;;;;;;;5094183;28;20207;-53
2024/01/17 06:44:13;;;;;;;8.23;6.17;;;;;;;;;;5094365;28;20527;-57
2024/01/17 06:46:39;;;;;;;13.03;6.70;;;;;;;;;;5094399;28;20188;-55
2024/01/17 06:49:05;;;;;;;10.77;6.27;;;;;;;;;;5094035;28;20172;-55
2024/01/17 06:51:31;;;;;;;8.33;5.87;;;;;;;;;;5093838;28;20598;-56
2024/01/17 06:53:58;;;;;;;12.83;6.17;;;;;;;;;;5093959;28;20759;-53
2024/01/17 06:56:24;;;;;;;12.30;6.07;;;;;;;;;;5093609;28;20226;-54
2024/01/17 06:58:50;;;;;;;11.93;6.83;;;;;;;;;;5090973;28;20183;-54
2024/01/17 07:01:17;;;;;;;10.13;6.80;;;;;;;;;;5089833;28;20360;-54
2024/01/17 07:03:43;;;;;;;7.83;5.30;;;;;;;;;;5088840;28;20570;-56
2024/01/17 07:06:10;;;;;;;10.87;5.70;;;;;;;;;;5088933;28;20617;-56
2024/01/17 07:08:36;;;;;;;7.30;5.60;;;;;;;;;;5088627;28;20263;-52
2024/01/17 07:11:02;;;;;;;10.57;5.67;;;;;;;;;;5088829;28;20255;-51
2024/01/17 07:13:29;;;;;;;11.13;6.23;;;;;;;;;;5093215;28;20848;-49
2024/01/17 07:15:56;;;;;;;8.83;6.03;;;;;;;;;;5094173;28;20198;-56
2024/01/17 07:18:23;;;;;;;7.33;5.47;;;;;;;;;;5112117;28;20183;-56
2024/01/17 07:20:50;;;;;;;7.30;5.27;;;;;;;;;;5094302;28;20214;-52
2024/01/17 07:23:17;;;;;;;9.60;5.77;;;;;;;;;;5093683;28;20270;-54
2024/01/17 07:25:44;;;;;;;8.90;4.80;;;;;;;;;;5094002;28;20437;-55
2024/01/17 07:28:10;;;;;;;13.17;5.83;;;;;;;;;;5093197;28;20702;-54
2024/01/17 07:30:36;;;;;;;10.10;5.63;;;;;;;;;;5093165;28;20197;-55
2024/01/17 07:33:03;;;;;;;10.77;5.47;;;;;;;;;;5093942;28;20304;-56
2024/01/17 07:35:30;;;;;;;11.63;5.70;;;;;;;;;;5094221;28;20210;-55
2024/01/17 07:37:58;;;;;;;7.93;4.53;;;;;;;;;;5094604;28;20168;-55
2024/01/17 07:40:24;;;;;;;7.20;5.17;;;;;;;;;;5096873;28;20159;-55
2024/01/17 07:42:51;;;;;;;7.33;4.60;;;;;;;;;;5096837;28;20167;-55
2024/01/17 07:45:18;;;;;;;6.17;4.23;;;;;;;;;;5094710;28;20278;-56
2024/01/17 07:47:45;;;;;;;9.37;5.03;;;;;;;;;;5096678;28;20171;-55
2024/01/17 07:50:12;;;;;;;8.73;4.40;;;;;;;;;;5079498;28;20187;-55
2024/01/17 07:52:38;;;;;;;6.53;5.07;;;;;;;;;;5095933;28;20254;-55
2024/01/17 07:55:05;;;;;;;10.70;5.03;;;;;;;;;;5095274;28;20278;-54
2024/01/17 07:57:31;;;;;;;10.77;4.80;;;;;;;;;;5113149;28;20167;-55
2024/01/17 07:59:58;;;;;;;7.40;4.67;;;;;;;;;;5094529;28;20177;-55
2024/01/17 08:02:27;;;;;;;7.57;4.50;;;;;;;;;;5096423;28;20207;-51
2024/01/17 08:04:53;;;;;;;9.37;5.10;;;;;;;;;;5097311;28;20558;-55
2024/01/17 08:07:24;;;;;;;7.60;4.40;;;;;;;;;;5096136;28;20248;-55
2024/01/17 08:09:51;;;;;;;9.87;4.33;;;;;;;;;;5114726;28;20174;-54
2024/01/17 08:12:17;;;;;;;7.20;4.60;;;;;;;;;;5078617;28;20175;-56
2024/01/17 08:14:45;;;;;;;10.10;4.57;;;;;;;;;;5092315;28;20249;-52
2024/01/17 08:17:12;;;;;;;7.57;4.73;;;;;;;;;;5092403;28;20172;-55
2024/01/17 08:19:40;;;;;;;8.07;4.40;;;;;;;;;;5092652;28;20235;-55
2024/01/17 08:22:06;;;;;;;7.83;5.10;;;;;;;;;;5092019;28;20298;-54
2024/01/17 08:24:32;;;;;;;12.37;3.93;;;;;;;;;;5091703;28;20271;-54
2024/01/17 08:26:58;;;;;;;7.47;4.07;;;;;;;;;;5090332;28;20233;-52
2024/01/17 08:29:26;;;;;;;8.73;4.13;;;;;;;;;;5090884;28;20176;-55
2024/01/17 08:31:52;;;;;;;5.37;4.00;;;;;;;;;;5089520;28;20237;-56
2024/01/17 08:34:20;;;;;;;8.00;4.03;;;;;;;;;;5089930;28;20803;-54
2024/01/17 08:36:47;;;;;;;9.23;4.80;;;;;;;;;;5088874;28;20174;-54
2024/01/17 08:39:17;;;;;;;7.33;4.30;;;;;;;;;;5089488;28;20176;-55
2024/01/17 08:41:45;;;;;;;5.80;3.67;;;;;;;;;;5091599;28;20627;-53
2024/01/17 08:44:12;;;;;;;6.23;3.93;;;;;;;;;;5091325;28;20199;-56
2024/01/17 08:46:46;;;;;;;6.87;4.07;;;;;;;;;;5091427;28;20237;-55
2024/01/17 08:49:14;;;;;;;7.60;4.17;;;;;;;;;;5090123;28;20172;-51
2024/01/17 08:51:41;;;;;;;10.10;3.93;;;;;;;;;;5091646;28;20241;-52
2024/01/17 08:54:07;;;;;;;9.67;4.13;;;;;;;;;;5089352;28;20847;-54
2024/01/17 08:56:33;;;;;;;5.47;4.03;;;;;;;;;;5090945;28;20184;-55
2024/01/17 08:59:02;;;;;;;7.13;4.43;;;;;;;;;;5090475;28;20180;-56
2024/01/17 09:01:29;;;;;;;9.77;4.13;;;;;;;;;;5090746;28;20210;-51
2024/01/17 09:03:56;;;;;;;11.73;3.60;;;;;;;;;;5090356;28;20192;-56
2024/01/17 09:06:22;;;;;;;8.47;3.80;;;;;;;;;;5090936;28;20172;-54
2024/01/17 09:08:50;;;;;;;7.73;3.13;;;;;;;;;;5091760;28;20160;-50
2024/01/17 09:11:16;;;;;;;7.30;3.67;;;;;;;;;;5091503;28;20764;-53
2024/01/17 09:13:43;;;;;;;5.70;3.87;;;;;;;;;;5098140;28;20227;-51
2024/01/17 09:16:14;;;;;;;5.90;4.20;;;;;;;;;;5111300;28;20159;-51
2024/01/17 09:18:43;;;;;;;5.97;3.70;;;;;;;;;;5077479;28;20183;-54
2024/01/17 09:21:09;;;;;;;7.80;3.27;;;;;;;;;;5092226;28;20199;-54
2024/01/17 09:23:35;;;;;;;6.63;4.20;;;;;;;;;;5112349;28;20168;-51
2024/01/17 09:26:01;;;;;;;6.07;3.93;;;;;;;;;;5094081;28;20258;-52
2024/01/17 09:28:27;;;;;;;4.83;3.73;;;;;;;;;;5094077;28;20178;-55
2024/01/17 09:30:55;;;;;;;5.83;3.73;;;;;;;;;;5111011;28;20163;-55
2024/01/17 09:33:22;;;;;;;4.43;3.30;;;;;;;;;;5094947;28;20247;-55
2024/01/17 09:35:48;;;;;;;7.70;3.53;;;;;;;;;;5093327;28;20205;-54
2024/01/17 09:38:15;;;;;;;8.67;3.67;;;;;;;;;;5093583;28;20684;-55
2024/01/17 09:40:41;;;;;;;6.63;4.30;;;;;;;;;;5112047;28;20203;-57
2024/01/17 09:43:08;;;;;;;11.10;3.87;;;;;;;;;;5095152;28;20172;-52
2024/01/17 09:45:37;;;;;;;10.73;3.57;;;;;;;;;;5112898;28;20176;-55
2024/01/17 09:48:03;;;;;;;10.67;3.93;;;;;;;;;;5093271;28;20226;-54
2024/01/17 09:50:29;;;;;;;12.20;3.90;;;;;;;;;;5093641;28;20170;-56
2024/01/17 09:52:57;;;;;;;6.23;3.20;;;;;;;;;;5093072;28;20172;-56
2024/01/17 09:55:27;;;;;;;5.60;3.60;;;;;;;;;;5111100;28;20170;-55
2024/01/17 09:57:56;;;;;;;9.43;4.40;;;;;;;;;;5077307;28;20224;-56
2024/01/17 10:00:23;;;;;;;7.70;3.93;;;;;;;;;;5091931;28;20232;-54
2024/01/17 10:02:51;;;;;;;7.87;3.43;;;;;;;;;;5092185;28;20171;-54
2024/01/17 10:05:17;;;;;;;4.33;3.40;;;;;;;;;;5092334;28;20173;-55
2024/01/17 10:07:45;;;;;;;8.30;4.33;;;;;;;;;;5091682;28;20168;-57
2024/01/17 10:10:11;;;;;;;8.27;3.97;;;;;;;;;;5096773;28;20167;-53
2024/01/17 10:12:37;;;;;;;7.97;3.53;;;;;;;;;;5096878;28;20232;-56
2024/01/17 10:15:07;;;;;;;10.73;4.03;;;;;;;;;;5098291;28;20242;-55
2024/01/17 10:17:37;;;;;;;7.20;4.13;;;;;;;;;;5098500;28;20183;-59
2024/01/17 10:20:04;;;;;;;8.50;3.60;;;;;;;;;;5098202;28;20696;-59
2024/01/17 10:22:31;;;;;;;8.77;4.20;;;;;;;;;;5098156;28;20264;-59
2024/01/17 10:25:00;;;;;;;14.17;4.13;;;;;;;;;;5097793;28;20172;-57
2024/01/17 10:27:30;;;;;;;6.27;4.00;;;;;;;;;;5097343;28;20232;-55
2024/01/17 10:29:56;;;;;;;5.83;4.33;;;;;;;;;;5115149;28;20243;-56
2024/01/17 10:32:23;;;;;;;8.00;4.17;;;;;;;;;;5097350;28;20257;-57
2024/01/17 10:34:52;;;;;;;5.87;3.70;;;;;;;;;;5097512;28;20203;-54
2024/01/17 10:37:19;;;;;;;8.27;4.23;;;;;;;;;;5096892;28;20172;-55
2024/01/17 10:39:45;;;;;;;11.57;4.07;;;;;;;;;;5095684;28;20175;-54
2024/01/17 10:42:20;;;;;;;6.03;4.07;;;;;;;;;;5095232;28;20214;-54
2024/01/17 10:44:48;;;;;;;7.87;4.20;;;;;;;;;;5094620;28;20163;-56
2024/01/17 10:47:14;;;;;;;5.43;4.07;;;;;;;;;;5113558;28;20190;-55
2024/01/17 10:49:40;;;;;;;10.70;4.30;;;;;;;;;;5094993;28;20673;-55
2024/01/17 10:52:11;;;;;;;7.43;3.50;;;;;;;;;;5095854;28;20182;-55
2024/01/17 10:54:56;;;;;;;5.87;4.40;;;;;;;;;;5096015;28;20183;-56
2024/01/17 10:57:25;;;;;;;9.30;4.67;;;;;;;;;;5094123;28;20171;-57
2024/01/17 10:59:56;;;;;;;6.27;4.23;;;;;;;;;;5111907;28;20258;-52
2024/01/17 11:02:25;;;;;;;5.03;3.60;;;;;;;;;;5113416;28;20582;-56
2024/01/17 11:05:00;;;;;;;6.03;3.93;;;;;;;;;;5094887;28;20258;-54
2024/01/17 11:07:28;;;;;;;8.47;4.20;;;;;;;;;;5112623;28;20170;-56
2024/01/17 11:10:03;;;;;;;9.53;4.47;;;;;;;;;;5095615;28;20176;-54
2024/01/17 11:12:32;;;;;;;7.17;4.60;;;;;;;;;;5094976;28;20174;-55
2024/01/17 11:14:59;;;;;;;6.63;4.03;;;;;;;;;;5111830;28;20231;-54
2024/01/17 11:17:28;;;;;;;6.13;4.07;;;;;;;;;;5094705;28;20183;-56
2024/01/17 11:19:55;;;;;;;9.20;4.40;;;;;;;;;;5112910;28;20207;-56
2024/01/17 11:22:21;;;;;;;8.10;3.87;;;;;;;;;;5095114;28;20199;-57
2024/01/17 11:24:51;;;;;;;11.00;4.40;;;;;;;;;;5095947;28;20273;-57
2024/01/17 11:27:25;;;;;;;6.40;4.50;;;;;;;;;;5093948;28;20562;-56
2024/01/17 11:29:51;;;;;;;10.93;4.53;;;;;;;;;;5092846;28;20175;-53
2024/01/17 11:32:29;;;;;;;7.40;4.40;;;;;;;;;;5111993;28;20172;-56
2024/01/17 11:34:55;;;;;;;8.47;4.50;;;;;;;;;;5111959;28;20597;-53
2024/01/17 11:37:28;;;;;;;7.87;4.60;;;;;;;;;;5093657;28;20476;-55
2024/01/17 11:39:57;;;;;;;6.57;3.93;;;;;;;;;;5093778;28;20182;-55
2024/01/17 11:42:24;;;;;;;9.37;5.17;;;;;;;;;;5112318;28;20638;-55
2024/01/17 11:44:51;;;;;;;7.10;4.30;;;;;;;;;;5111225;28;20345;-57
2024/01/17 11:47:20;;;;;;;9.87;4.83;;;;;;;;;;5093650;28;20429;-56
2024/01/17 11:49:47;;;;;;;7.97;4.80;;;;;;;;;;5095215;28;20171;-57
2024/01/17 11:52:32;;;;;;;9.00;3.97;;;;;;;;;;5095247;28;20179;-56
2024/01/17 11:55:00;;;;;;;13.83;4.83;;;;;;;;;;5112264;28;20254;-57
2024/01/17 11:57:27;;;;;;;5.77;4.20;;;;;;;;;;5094469;28;20171;-57
2024/01/17 12:00:06;;;;;;;6.03;4.77;;;;;;;;;;5093146;28;20186;-55
2024/01/17 12:02:39;;;;;;;7.60;4.53;;;;;;;;;;5091780;28;20218;-56
2024/01/17 12:05:09;;;;;;;10.00;5.07;;;;;;;;;;5090777;28;20246;-60
2024/01/17 12:07:38;;;;;;;12.77;5.37;;;;;;;;;;5107705;28;20574;-60
2024/01/17 12:10:09;;;;;;;8.33;5.33;;;;;;;;;;5106936;28;20625;-59
2024/01/17 12:12:35;;;;;;;10.13;5.20;;;;;;;;;;5108085;28;20175;-53
2024/01/17 12:15:01;;;;;;;7.40;5.00;;;;;;;;;;5105587;28;20227;-57
2024/01/17 12:17:28;;;;;;;15.17;5.90;;;;;;;;;;5088939;28;20471;-56
2024/01/17 12:19:54;;;;;;;9.10;4.17;;;;;;;;;;5107138;28;20180;-55
2024/01/17 12:22:20;;;;;;;7.17;5.07;;;;;;;;;;5089259;28;20209;-55
2024/01/17 12:24:46;;;;;;;9.57;5.00;;;;;;;;;;5090646;28;20171;-53
2024/01/17 12:27:12;;;;;;;7.63;4.77;;;;;;;;;;5088772;28;20167;-53
2024/01/17 12:29:38;;;;;;;7.63;4.17;;;;;;;;;;5087671;28;20255;-57
2024/01/17 12:32:04;;;;;;;8.80;5.53;;;;;;;;;;5106225;28;20328;-56
2024/01/17 12:34:30;;;;;;;11.10;5.00;;;;;;;;;;5107646;28;20184;-55
2024/01/17 12:36:56;;;;;;;7.67;4.60;;;;;;;;;;5106552;28;20175;-56
2024/01/17 12:39:22;;;;;;;8.60;4.60;;;;;;;;;;5088246;28;20171;-56
2024/01/17 12:41:54;;;;;;;11.90;5.90;;;;;;;;;;5108020;28;20191;-56
2024/01/17 12:44:20;;;;;;;7.37;5.10;;;;;;;;;;5089134;28;20832;-54
2024/01/17 12:46:46;;;;;;;11.67;5.00;;;;;;;;;;5089497;28;20288;-56
2024/01/17 12:49:15;;;;;;;7.40;4.97;;;;;;;;;;5088726;28;20178;-57
2024/01/17 12:51:41;;;;;;;7.27;5.27;;;;;;;;;;5089046;28;20180;-53
2024/01/17 12:54:07;;;;;;;14.13;5.23;;;;;;;;;;5090147;28;20168;-57
2024/01/17 12:56:34;;;;;;;8.67;5.17;;;;;;;;;;5090163;28;20269;-56
2024/01/17 12:59:00;;;;;;;8.23;5.53;;;;;;;;;;5090872;28;20163;-56
2024/01/17 13:01:27;;;;;;;7.43;4.70;;;;;;;;;;5108896;28;20207;-57
2024/01/17 13:04:00;;;;;;;9.17;4.57;;;;;;;;;;5090125;28;20174;-55
2024/01/17 13:06:26;;;;;;;7.93;4.87;;;;;;;;;;5090458;28;20185;-53
2024/01/17 13:08:52;;;;;;;11.33;5.83;;;;;;;;;;5089138;28;20159;-56
2024/01/17 13:11:18;;;;;;;7.33;5.00;;;;;;;;;;5089972;28;20175;-57
2024/01/17 13:13:44;;;;;;;8.70;5.57;;;;;;;;;;5088854;28;20262;-55
2024/01/17 13:16:13;;;;;;;8.53;4.60;;;;;;;;;;5088714;28;20190;-53
2024/01/17 13:18:40;;;;;;;8.57;4.10;;;;;;;;;;5107176;28;20197;-56
2024/01/17 13:21:13;;;;;;;8.07;4.97;;;;;;;;;;5091248;28;20211;-57
2024/01/17 13:23:40;;;;;;;13.47;5.43;;;;;;;;;;5091601;28;20191;-56
2024/01/17 13:26:07;;;;;;;9.13;5.17;;;;;;;;;;5106377;28;20171;-57
2024/01/17 13:28:33;;;;;;;6.13;4.30;;;;;;;;;;5089406;28;20174;-56
2024/01/17 13:31:01;;;;;;;6.93;4.73;;;;;;;;;;5108455;28;20180;-55
2024/01/17 13:33:28;;;;;;;7.50;4.63;;;;;;;;;;5090545;28;20207;-57
2024/01/17 13:35:56;;;;;;;14.97;5.23;;;;;;;;;;5090342;28;20167;-57
2024/01/17 13:38:25;;;;;;;8.27;4.83;;;;;;;;;;5106804;28;20549;-55
2024/01/17 13:40:52;;;;;;;7.47;4.57;;;;;;;;;;5089528;28;20202;-55
2024/01/17 13:43:18;;;;;;;11.60;5.57;;;;;;;;;;5090305;28;20174;-57
2024/01/17 13:45:44;;;;;;;11.80;4.30;;;;;;;;;;5096254;28;20450;-56
2024/01/17 13:48:10;;;;;;;11.17;5.87;;;;;;;;;;5112925;28;20683;-52
2024/01/17 13:50:36;;;;;;;9.83;4.67;;;;;;;;;;5096055;28;20552;-56
2024/01/17 13:53:17;;;;;;;9.67;5.33;;;;;;;;;;5095518;28;20573;-53
2024/01/17 13:55:44;;;;;;;9.23;4.50;;;;;;;;;;5096910;28;20171;-56
2024/01/17 13:58:09;;;;;;;10.40;5.07;;;;;;;;;;5095491;28;20591;-54
2024/01/17 14:00:39;;;;;;;6.87;4.37;;;;;;;;;;5096062;28;20550;-57
2024/01/17 14:03:06;;;;;;;6.87;4.60;;;;;;;;;;5114361;28;20173;-56
2024/01/17 14:05:33;;;;;;;6.97;4.70;;;;;;;;;;5097376;28;20535;-55
2024/01/17 14:08:00;;;;;;;7.00;3.97;;;;;;;;;;5097274;28;20171;-53
2024/01/17 14:10:25;;;;;;;12.90;4.80;;;;;;;;;;5114707;28;20159;-55
2024/01/17 14:12:52;;;;;;;7.50;4.30;;;;;;;;;;5097667;28;20175;-55
2024/01/17 14:15:19;;;;;;;5.23;3.83;;;;;;;;;;5093675;28;20246;-57
2024/01/17 14:17:45;;;;;;;7.90;4.30;;;;;;;;;;5093407;28;20282;-56
2024/01/17 14:20:17;;;;;;;10.67;4.43;;;;;;;;;;5093757;28;20310;-57
2024/01/17 14:22:45;;;;;;;13.03;4.90;;;;;;;;;;5093503;28;20486;-56
2024/01/17 14:25:14;;;;;;;13.17;4.93;;;;;;;;;;5093015;28;20164;-56
2024/01/17 14:27:40;;;;;;;7.93;4.70;;;;;;;;;;5091881;28;20176;-56
2024/01/17 14:30:07;;;;;;;7.63;4.60;;;;;;;;;;5092000;28;20172;-55
2024/01/17 14:32:33;;;;;;;12.50;5.10;;;;;;;;;;5093587;28;20229;-55
2024/01/17 14:34:59;;;;;;;13.30;5.47;;;;;;;;;;5093664;28;20180;-54
2024/01/17 14:37:26;;;;;;;6.80;4.40;;;;;;;;;;5092747;28;20244;-55